sensor_id;sensor_type;location;lat;lon;timestamp;temperature;humidity
17918;DHT22;9084;50.956;3.106;2022-11-18T00:01:36;9.40;99.90
17918;DHT22;9084;50.956;3.106;2022-11-18T00:04:02;9.40;99.90
17918;DHT22;9084;50.956;3.106;2022-11-18T00:06:29;9.40;99.90
17918;DHT22;9084;50.956;3.106;2022-11-18T00:08:56;9.30;99.90
17918;DHT22;9084;50.956;3.106;2022-11-18T00:11:24;9.20;99.90
17918;DHT22;9084;50.956;3.106;2022-11-18T00:14:17;9.20;99.90
17918;DHT22;9084;50.956;3.106;2022-11-18T00:16:49;9.20;99.90
17918;DHT22;9084;50.956;3.106;2022-11-18T00:19:15;9.20;99.90
17918;DHT22;9084;50.956;3.106;2022-11-18T00:21:41;9.10;99.90
17918;DHT22;9084;50.956;3.106;2022-11-18T00:24:07;9.10;99.90
17918;DHT22;9084;50.956;3.106;2022-11-18T00:26:33;9.10;99.90
17918;DHT22;9084;50.956;3.106;2022-11-18T00:29:00;9.10;99.90
17918;DHT22;9084;50.956;3.106;2022-11-18T00:31:27;9.10;99.90
17918;DHT22;9084;50.956;3.106;2022-11-18T00:33:53;9.00;99.90
17918;DHT22;9084;50.956;3.106;2022-11-18T00:36:18;9.00;99.90
17918;DHT22;9084;50.956;3.106;2022-11-18T00:38:46;9.00;99.90
17918;DHT22;9084;50.956;3.106;2022-11-18T00:41:13;8.90;99.90
17918;DHT22;9084;50.956;3.106;2022-11-18T00:43:40;8.90;99.90
17918;DHT22;9084;50.956;3.106;2022-11-18T00:46:08;8.90;99.90
17918;DHT22;9084;50.956;3.106;2022-11-18T00:48:34;8.80;99.90
17918;DHT22;9084;50.956;3.106;2022-11-18T00:51:13;8.80;99.90
17918;DHT22;9084;50.956;3.106;2022-11-18T00:53:42;8.80;99.90
17918;DHT22;9084;50.956;3.106;2022-11-18T00:56:11;8.80;99.90
17918;DHT22;9084;50.956;3.106;2022-11-18T00:58:36;8.70;99.90
17918;DHT22;9084;50.956;3.106;2022-11-18T01:01:04;8.80;99.90
17918;DHT22;9084;50.956;3.106;2022-11-18T01:03:30;8.70;99.90
17918;DHT22;9084;50.956;3.106;2022-11-18T01:05:59;8.70;99.90
17918;DHT22;9084;50.956;3.106;2022-11-18T01:08:25;8.70;99.90
17918;DHT22;9084;50.956;3.106;2022-11-18T01:10:51;8.70;99.90
17918;DHT22;9084;50.956;3.106;2022-11-18T01:13:19;8.70;99.90
17918;DHT22;9084;50.956;3.106;2022-11-18T01:15:51;8.70;99.90
17918;DHT22;9084;50.956;3.106;2022-11-18T01:18:21;8.70;99.90
17918;DHT22;9084;50.956;3.106;2022-11-18T01:20:47;8.70;99.90
17918;DHT22;9084;50.956;3.106;2022-11-18T01:23:14;8.70;99.90
17918;DHT22;9084;50.956;3.106;2022-11-18T01:25:43;8.70;99.90
17918;DHT22;9084;50.956;3.106;2022-11-18T01:28:12;8.70;99.90
17918;DHT22;9084;50.956;3.106;2022-11-18T01:30:40;8.60;99.90
17918;DHT22;9084;50.956;3.106;2022-11-18T01:33:08;8.60;99.90
17918;DHT22;9084;50.956;3.106;2022-11-18T01:35:42;8.60;99.90
17918;DHT22;9084;50.956;3.106;2022-11-18T01:38:13;8.60;99.90
17918;DHT22;9084;50.956;3.106;2022-11-18T01:40:41;8.60;99.90
17918;DHT22;9084;50.956;3.106;2022-11-18T01:43:16;8.60;99.90
17918;DHT22;9084;50.956;3.106;2022-11-18T01:45:45;8.60;99.90
17918;DHT22;9084;50.956;3.106;2022-11-18T01:48:18;8.50;99.90
17918;DHT22;9084;50.956;3.106;2022-11-18T01:50:51;8.50;99.90
17918;DHT22;9084;50.956;3.106;2022-11-18T01:53:28;8.50;99.90
17918;DHT22;9084;50.956;3.106;2022-11-18T01:56:00;8.50;99.90
17918;DHT22;9084;50.956;3.106;2022-11-18T01:58:32;8.50;99.90
17918;DHT22;9084;50.956;3.106;2022-11-18T02:01:03;8.50;99.90
17918;DHT22;9084;50.956;3.106;2022-11-18T02:03:33;8.50;99.90
17918;DHT22;9084;50.956;3.106;2022-11-18T02:06:00;8.50;99.90
17918;DHT22;9084;50.956;3.106;2022-11-18T02:08:28;8.40;99.90
17918;DHT22;9084;50.956;3.106;2022-11-18T02:10:54;8.40;99.90
17918;DHT22;9084;50.956;3.106;2022-11-18T02:13:22;8.40;99.90
17918;DHT22;9084;50.956;3.106;2022-11-18T02:16:13;8.40;99.90
17918;DHT22;9084;50.956;3.106;2022-11-18T02:19:00;8.40;99.90
17918;DHT22;9084;50.956;3.106;2022-11-18T02:21:56;8.40;99.90
17918;DHT22;9084;50.956;3.106;2022-11-18T02:25:07;8.40;99.90
17918;DHT22;9084;50.956;3.106;2022-11-18T02:30:23;8.40;99.90
17918;DHT22;9084;50.956;3.106;2022-11-18T02:33:05;8.30;99.90
17918;DHT22;9084;50.956;3.106;2022-11-18T02:35:42;8.30;99.90
17918;DHT22;9084;50.956;3.106;2022-11-18T02:38:33;8.30;99.90
17918;DHT22;9084;50.956;3.106;2022-11-18T02:41:08;8.30;99.90
17918;DHT22;9084;50.956;3.106;2022-11-18T02:43:46;8.30;99.90
17918;DHT22;9084;50.956;3.106;2022-11-18T02:46:17;8.30;99.90
17918;DHT22;9084;50.956;3.106;2022-11-18T02:48:47;8.20;99.90
17918;DHT22;9084;50.956;3.106;2022-11-18T02:51:17;8.20;99.90
17918;DHT22;9084;50.956;3.106;2022-11-18T02:53:45;8.20;99.90
17918;DHT22;9084;50.956;3.106;2022-11-18T02:56:14;8.20;99.90
17918;DHT22;9084;50.956;3.106;2022-11-18T02:58:41;8.20;99.90
17918;DHT22;9084;50.956;3.106;2022-11-18T03:01:17;8.20;99.90
17918;DHT22;9084;50.956;3.106;2022-11-18T03:03:46;8.20;99.90
17918;DHT22;9084;50.956;3.106;2022-11-18T03:08:58;8.20;99.90
17918;DHT22;9084;50.956;3.106;2022-11-18T03:11:31;8.20;99.90
17918;DHT22;9084;50.956;3.106;2022-11-18T03:14:17;8.20;99.90
17918;DHT22;9084;50.956;3.106;2022-11-18T03:22:10;8.10;99.90
17918;DHT22;9084;50.956;3.106;2022-11-18T03:24:41;8.10;99.90
17918;DHT22;9084;50.956;3.106;2022-11-18T03:27:14;8.10;99.90
17918;DHT22;9084;50.956;3.106;2022-11-18T03:29:48;8.00;99.90
17918;DHT22;9084;50.956;3.106;2022-11-18T03:32:22;8.00;99.90
17918;DHT22;9084;50.956;3.106;2022-11-18T03:34:54;8.00;99.90
17918;DHT22;9084;50.956;3.106;2022-11-18T03:37:22;8.00;99.90
17918;DHT22;9084;50.956;3.106;2022-11-18T03:39:52;8.00;99.90
17918;DHT22;9084;50.956;3.106;2022-11-18T03:42:36;8.00;99.90
17918;DHT22;9084;50.956;3.106;2022-11-18T03:45:16;8.00;99.90
17918;DHT22;9084;50.956;3.106;2022-11-18T03:47:59;8.00;99.90
17918;DHT22;9084;50.956;3.106;2022-11-18T03:50:31;7.90;99.90
17918;DHT22;9084;50.956;3.106;2022-11-18T03:53:00;7.90;99.90
17918;DHT22;9084;50.956;3.106;2022-11-18T03:55:31;7.90;99.90
17918;DHT22;9084;50.956;3.106;2022-11-18T03:58:22;8.00;99.90
17918;DHT22;9084;50.956;3.106;2022-11-18T04:00:52;8.00;99.90
17918;DHT22;9084;50.956;3.106;2022-11-18T04:03:18;8.00;99.90
17918;DHT22;9084;50.956;3.106;2022-11-18T04:05:45;8.00;99.90
17918;DHT22;9084;50.956;3.106;2022-11-18T04:08:19;8.00;99.90
17918;DHT22;9084;50.956;3.106;2022-11-18T04:11:04;8.10;99.90
17918;DHT22;9084;50.956;3.106;2022-11-18T04:13:33;8.10;99.90
17918;DHT22;9084;50.956;3.106;2022-11-18T04:16:01;8.20;99.90
17918;DHT22;9084;50.956;3.106;2022-11-18T04:18:28;8.30;99.90
17918;DHT22;9084;50.956;3.106;2022-11-18T04:20:54;8.30;99.90
17918;DHT22;9084;50.956;3.106;2022-11-18T04:23:19;8.40;99.90
17918;DHT22;9084;50.956;3.106;2022-11-18T04:25:45;8.30;99.90
17918;DHT22;9084;50.956;3.106;2022-11-18T04:28:11;8.40;99.90
17918;DHT22;9084;50.956;3.106;2022-11-18T04:30:36;8.50;99.90
17918;DHT22;9084;50.956;3.106;2022-11-18T04:33:02;8.50;99.90
17918;DHT22;9084;50.956;3.106;2022-11-18T04:35:27;8.60;99.90
17918;DHT22;9084;50.956;3.106;2022-11-18T04:37:56;8.60;99.90
17918;DHT22;9084;50.956;3.106;2022-11-18T04:40:24;8.60;99.90
17918;DHT22;9084;50.956;3.106;2022-11-18T04:42:50;8.70;99.90
17918;DHT22;9084;50.956;3.106;2022-11-18T04:45:18;8.60;99.90
17918;DHT22;9084;50.956;3.106;2022-11-18T04:47:46;8.70;99.90
17918;DHT22;9084;50.956;3.106;2022-11-18T04:50:11;8.80;99.90
17918;DHT22;9084;50.956;3.106;2022-11-18T04:52:37;8.70;99.90
17918;DHT22;9084;50.956;3.106;2022-11-18T04:55:03;8.70;99.90
17918;DHT22;9084;50.956;3.106;2022-11-18T04:57:29;8.70;99.90
17918;DHT22;9084;50.956;3.106;2022-11-18T04:59:55;8.80;99.90
17918;DHT22;9084;50.956;3.106;2022-11-18T05:02:21;8.80;99.90
17918;DHT22;9084;50.956;3.106;2022-11-18T05:04:47;8.80;99.90
17918;DHT22;9084;50.956;3.106;2022-11-18T05:07:13;8.80;99.90
17918;DHT22;9084;50.956;3.106;2022-11-18T05:09:40;8.80;99.90
17918;DHT22;9084;50.956;3.106;2022-11-18T05:12:08;8.80;99.90
17918;DHT22;9084;50.956;3.106;2022-11-18T05:14:53;8.80;99.90
17918;DHT22;9084;50.956;3.106;2022-11-18T05:17:19;8.80;99.90
17918;DHT22;9084;50.956;3.106;2022-11-18T05:19:44;8.90;99.90
17918;DHT22;9084;50.956;3.106;2022-11-18T05:22:10;8.90;99.90
17918;DHT22;9084;50.956;3.106;2022-11-18T05:24:38;8.90;99.90
17918;DHT22;9084;50.956;3.106;2022-11-18T05:27:06;8.90;99.90
17918;DHT22;9084;50.956;3.106;2022-11-18T05:29:31;8.90;99.90
17918;DHT22;9084;50.956;3.106;2022-11-18T05:31:58;8.90;99.90
17918;DHT22;9084;50.956;3.106;2022-11-18T05:34:26;8.90;99.90
17918;DHT22;9084;50.956;3.106;2022-11-18T05:36:52;9.00;99.90
17918;DHT22;9084;50.956;3.106;2022-11-18T05:39:18;8.90;99.90
17918;DHT22;9084;50.956;3.106;2022-11-18T05:41:44;9.00;99.90
17918;DHT22;9084;50.956;3.106;2022-11-18T05:44:28;9.10;99.90
17918;DHT22;9084;50.956;3.106;2022-11-18T05:46:53;9.00;99.90
17918;DHT22;9084;50.956;3.106;2022-11-18T05:49:19;9.00;99.90
17918;DHT22;9084;50.956;3.106;2022-11-18T05:51:45;9.10;99.90
17918;DHT22;9084;50.956;3.106;2022-11-18T05:54:12;9.10;99.90
17918;DHT22;9084;50.956;3.106;2022-11-18T05:56:43;9.00;99.90
17918;DHT22;9084;50.956;3.106;2022-11-18T05:59:12;9.00;99.90
17918;DHT22;9084;50.956;3.106;2022-11-18T06:04:38;9.00;99.90
17918;DHT22;9084;50.956;3.106;2022-11-18T06:07:13;9.00;99.90
17918;DHT22;9084;50.956;3.106;2022-11-18T06:09:41;9.00;99.90
17918;DHT22;9084;50.956;3.106;2022-11-18T06:12:17;9.00;99.90
17918;DHT22;9084;50.956;3.106;2022-11-18T06:14:48;9.10;99.90
17918;DHT22;9084;50.956;3.106;2022-11-18T06:17:21;9.10;99.90
17918;DHT22;9084;50.956;3.106;2022-11-18T06:19:48;9.10;99.90
17918;DHT22;9084;50.956;3.106;2022-11-18T06:22:14;9.10;99.90
17918;DHT22;9084;50.956;3.106;2022-11-18T06:24:40;9.20;99.90
17918;DHT22;9084;50.956;3.106;2022-11-18T06:27:07;9.10;99.90
17918;DHT22;9084;50.956;3.106;2022-11-18T06:29:33;9.20;99.90
17918;DHT22;9084;50.956;3.106;2022-11-18T06:31:59;9.20;99.90
17918;DHT22;9084;50.956;3.106;2022-11-18T06:34:24;9.10;99.90
17918;DHT22;9084;50.956;3.106;2022-11-18T06:36:52;9.20;99.90
17918;DHT22;9084;50.956;3.106;2022-11-18T06:39:18;9.20;99.90
17918;DHT22;9084;50.956;3.106;2022-11-18T06:41:44;9.20;99.90
17918;DHT22;9084;50.956;3.106;2022-11-18T06:44:11;9.20;99.90
17918;DHT22;9084;50.956;3.106;2022-11-18T06:46:37;9.20;99.90
17918;DHT22;9084;50.956;3.106;2022-11-18T06:49:22;9.20;99.90
17918;DHT22;9084;50.956;3.106;2022-11-18T06:51:50;9.20;99.90
17918;DHT22;9084;50.956;3.106;2022-11-18T06:54:17;9.20;99.90
17918;DHT22;9084;50.956;3.106;2022-11-18T06:56:42;9.20;99.90
17918;DHT22;9084;50.956;3.106;2022-11-18T06:59:08;9.20;99.90
17918;DHT22;9084;50.956;3.106;2022-11-18T07:01:37;9.20;99.90
17918;DHT22;9084;50.956;3.106;2022-11-18T07:04:05;9.30;99.90
17918;DHT22;9084;50.956;3.106;2022-11-18T07:06:33;9.30;99.90
17918;DHT22;9084;50.956;3.106;2022-11-18T07:09:01;9.30;99.90
17918;DHT22;9084;50.956;3.106;2022-11-18T07:11:27;9.30;99.90
17918;DHT22;9084;50.956;3.106;2022-11-18T07:13:56;9.30;99.90
17918;DHT22;9084;50.956;3.106;2022-11-18T07:16:25;9.30;99.90
17918;DHT22;9084;50.956;3.106;2022-11-18T07:18:55;9.30;99.90
17918;DHT22;9084;50.956;3.106;2022-11-18T07:21:23;9.30;99.90
17918;DHT22;9084;50.956;3.106;2022-11-18T07:23:50;9.30;99.90
17918;DHT22;9084;50.956;3.106;2022-11-18T07:26:17;9.30;99.90
17918;DHT22;9084;50.956;3.106;2022-11-18T07:28:43;9.30;99.90
17918;DHT22;9084;50.956;3.106;2022-11-18T07:31:14;9.30;99.90
17918;DHT22;9084;50.956;3.106;2022-11-18T07:33:41;9.30;99.90
17918;DHT22;9084;50.956;3.106;2022-11-18T07:36:12;9.30;99.90
17918;DHT22;9084;50.956;3.106;2022-11-18T07:38:41;9.30;99.90
17918;DHT22;9084;50.956;3.106;2022-11-18T07:41:11;9.30;99.90
17918;DHT22;9084;50.956;3.106;2022-11-18T07:43:39;9.30;99.90
17918;DHT22;9084;50.956;3.106;2022-11-18T07:48:44;9.40;99.90
17918;DHT22;9084;50.956;3.106;2022-11-18T07:51:10;9.40;99.90
17918;DHT22;9084;50.956;3.106;2022-11-18T07:53:39;9.40;99.90
17918;DHT22;9084;50.956;3.106;2022-11-18T07:56:08;9.40;99.90
17918;DHT22;9084;50.956;3.106;2022-11-18T07:58:37;9.50;99.90
17918;DHT22;9084;50.956;3.106;2022-11-18T08:03:37;9.50;99.90
17918;DHT22;9084;50.956;3.106;2022-11-18T08:06:06;9.60;99.90
17918;DHT22;9084;50.956;3.106;2022-11-18T08:08:35;9.60;99.90
17918;DHT22;9084;50.956;3.106;2022-11-18T08:11:02;9.60;99.90
17918;DHT22;9084;50.956;3.106;2022-11-18T08:13:35;9.70;99.90
17918;DHT22;9084;50.956;3.106;2022-11-18T08:16:02;9.70;99.90
17918;DHT22;9084;50.956;3.106;2022-11-18T08:18:30;9.70;99.90
17918;DHT22;9084;50.956;3.106;2022-11-18T08:21:01;9.70;99.90
17918;DHT22;9084;50.956;3.106;2022-11-18T08:23:27;9.80;99.90
17918;DHT22;9084;50.956;3.106;2022-11-18T08:26:10;9.80;99.90
17918;DHT22;9084;50.956;3.106;2022-11-18T08:28:38;9.90;99.90
17918;DHT22;9084;50.956;3.106;2022-11-18T08:31:25;9.90;99.90
17918;DHT22;9084;50.956;3.106;2022-11-18T08:36:22;10.00;99.90
17918;DHT22;9084;50.956;3.106;2022-11-18T08:38:50;10.10;99.90
17918;DHT22;9084;50.956;3.106;2022-11-18T08:41:19;10.10;99.90
17918;DHT22;9084;50.956;3.106;2022-11-18T08:43:47;10.20;99.90
17918;DHT22;9084;50.956;3.106;2022-11-18T08:46:18;10.20;99.90
17918;DHT22;9084;50.956;3.106;2022-11-18T08:48:44;10.20;99.90
17918;DHT22;9084;50.956;3.106;2022-11-18T08:51:10;10.30;99.90
17918;DHT22;9084;50.956;3.106;2022-11-18T08:53:37;10.30;99.90
17918;DHT22;9084;50.956;3.106;2022-11-18T08:56:05;10.30;99.90
17918;DHT22;9084;50.956;3.106;2022-11-18T08:58:31;10.40;99.90
17918;DHT22;9084;50.956;3.106;2022-11-18T09:00:57;10.50;99.90
17918;DHT22;9084;50.956;3.106;2022-11-18T09:03:23;10.50;99.90
17918;DHT22;9084;50.956;3.106;2022-11-18T09:05:51;10.50;99.90
17918;DHT22;9084;50.956;3.106;2022-11-18T09:08:19;10.60;99.90
17918;DHT22;9084;50.956;3.106;2022-11-18T09:10:46;10.60;99.90
17918;DHT22;9084;50.956;3.106;2022-11-18T09:13:11;10.60;99.90
17918;DHT22;9084;50.956;3.106;2022-11-18T09:15:37;10.60;99.90
17918;DHT22;9084;50.956;3.106;2022-11-18T09:18:05;10.60;99.90
17918;DHT22;9084;50.956;3.106;2022-11-18T09:20:33;10.70;99.90
17918;DHT22;9084;50.956;3.106;2022-11-18T09:22:59;10.80;99.90
17918;DHT22;9084;50.956;3.106;2022-11-18T09:25:24;10.80;99.90
17918;DHT22;9084;50.956;3.106;2022-11-18T09:27:53;10.80;99.90
17918;DHT22;9084;50.956;3.106;2022-11-18T09:30:22;10.80;99.90
17918;DHT22;9084;50.956;3.106;2022-11-18T09:32:48;10.80;99.90
17918;DHT22;9084;50.956;3.106;2022-11-18T09:35:14;10.80;99.90
17918;DHT22;9084;50.956;3.106;2022-11-18T09:37:40;10.80;99.90
17918;DHT22;9084;50.956;3.106;2022-11-18T09:40:16;10.80;99.90
17918;DHT22;9084;50.956;3.106;2022-11-18T09:47:47;10.80;99.90
17918;DHT22;9084;50.956;3.106;2022-11-18T09:50:22;10.80;99.90
17918;DHT22;9084;50.956;3.106;2022-11-18T09:53:03;10.80;99.90
17918;DHT22;9084;50.956;3.106;2022-11-18T09:55:37;10.80;99.90
17918;DHT22;9084;50.956;3.106;2022-11-18T09:58:04;10.80;99.90
17918;DHT22;9084;50.956;3.106;2022-11-18T10:00:30;10.80;99.90
17918;DHT22;9084;50.956;3.106;2022-11-18T10:03:01;10.80;99.90
17918;DHT22;9084;50.956;3.106;2022-11-18T10:10:51;10.80;99.90
17918;DHT22;9084;50.956;3.106;2022-11-18T10:16:07;10.90;99.90
17918;DHT22;9084;50.956;3.106;2022-11-18T10:24:41;11.10;99.90
17918;DHT22;9084;50.956;3.106;2022-11-18T10:27:11;11.10;99.90
17918;DHT22;9084;50.956;3.106;2022-11-18T10:29:37;11.10;99.90
17918;DHT22;9084;50.956;3.106;2022-11-18T10:34:33;11.10;99.90
17918;DHT22;9084;50.956;3.106;2022-11-18T10:37:04;11.10;99.90
17918;DHT22;9084;50.956;3.106;2022-11-18T10:39:31;11.20;99.90
17918;DHT22;9084;50.956;3.106;2022-11-18T10:42:05;11.20;99.90
17918;DHT22;9084;50.956;3.106;2022-11-18T10:47:27;11.30;99.90
17918;DHT22;9084;50.956;3.106;2022-11-18T10:50:01;11.40;99.90
17918;DHT22;9084;50.956;3.106;2022-11-18T10:52:54;11.40;99.90
17918;DHT22;9084;50.956;3.106;2022-11-18T10:55:22;11.50;99.90
17918;DHT22;9084;50.956;3.106;2022-11-18T10:58:09;11.50;99.90
17918;DHT22;9084;50.956;3.106;2022-11-18T11:00:43;11.60;99.90
17918;DHT22;9084;50.956;3.106;2022-11-18T11:03:25;11.60;99.90
17918;DHT22;9084;50.956;3.106;2022-11-18T11:06:17;11.70;99.90
17918;DHT22;9084;50.956;3.106;2022-11-18T11:09:00;11.70;99.90
17918;DHT22;9084;50.956;3.106;2022-11-18T11:11:56;11.70;99.90
17918;DHT22;9084;50.956;3.106;2022-11-18T11:17:01;11.80;99.90
17918;DHT22;9084;50.956;3.106;2022-11-18T11:22:29;11.90;99.90
17918;DHT22;9084;50.956;3.106;2022-11-18T11:24:55;12.00;99.90
17918;DHT22;9084;50.956;3.106;2022-11-18T11:30:19;12.00;99.90
17918;DHT22;9084;50.956;3.106;2022-11-18T11:38:52;12.10;99.90
17918;DHT22;9084;50.956;3.106;2022-11-18T11:41:23;12.20;99.90
17918;DHT22;9084;50.956;3.106;2022-11-18T11:49:28;12.40;99.90
17918;DHT22;9084;50.956;3.106;2022-11-18T11:52:08;12.50;99.90
17918;DHT22;9084;50.956;3.106;2022-11-18T11:54:46;12.50;99.90
17918;DHT22;9084;50.956;3.106;2022-11-18T12:00:13;12.60;99.90
17918;DHT22;9084;50.956;3.106;2022-11-18T12:02:55;12.70;99.90
17918;DHT22;9084;50.956;3.106;2022-11-18T12:08:02;12.80;99.90
17918;DHT22;9084;50.956;3.106;2022-11-18T12:10:40;12.90;99.60
17918;DHT22;9084;50.956;3.106;2022-11-18T12:16:30;13.10;99.90
17918;DHT22;9084;50.956;3.106;2022-11-18T12:19:07;13.20;99.50
17918;DHT22;9084;50.956;3.106;2022-11-18T12:26:46;13.50;98.30
17918;DHT22;9084;50.956;3.106;2022-11-18T12:31:47;13.50;85.30
17918;DHT22;9084;50.956;3.106;2022-11-18T12:34:35;13.40;73.60
17918;DHT22;9084;50.956;3.106;2022-11-18T12:42:43;13.30;91.80
17918;DHT22;9084;50.956;3.106;2022-11-18T12:48:28;13.10;88.70
17918;DHT22;9084;50.956;3.106;2022-11-18T12:50:56;13.00;90.30
17918;DHT22;9084;50.956;3.106;2022-11-18T12:53:58;13.00;91.90
17918;DHT22;9084;50.956;3.106;2022-11-18T12:56:26;13.00;93.70
17918;DHT22;9084;50.956;3.106;2022-11-18T12:58:57;13.00;95.10
17918;DHT22;9084;50.956;3.106;2022-11-18T13:01:30;13.00;93.80
17918;DHT22;9084;50.956;3.106;2022-11-18T13:04:07;13.10;93.10
17918;DHT22;9084;50.956;3.106;2022-11-18T13:06:37;13.10;92.20
17918;DHT22;9084;50.956;3.106;2022-11-18T13:09:11;13.10;94.00
17918;DHT22;9084;50.956;3.106;2022-11-18T13:11:54;13.20;93.70
17918;DHT22;9084;50.956;3.106;2022-11-18T13:14:28;13.30;91.30
17918;DHT22;9084;50.956;3.106;2022-11-18T13:17:36;13.40;94.40
17918;DHT22;9084;50.956;3.106;2022-11-18T13:25:46;13.80;65.30
17918;DHT22;9084;50.956;3.106;2022-11-18T13:28:23;13.80;67.10
17918;DHT22;9084;50.956;3.106;2022-11-18T13:31:13;13.90;57.10
17918;DHT22;9084;50.956;3.106;2022-11-18T13:33:41;13.90;57.30
17918;DHT22;9084;50.956;3.106;2022-11-18T13:36:21;13.90;61.40
17918;DHT22;9084;50.956;3.106;2022-11-18T13:39:04;13.90;56.90
17918;DHT22;9084;50.956;3.106;2022-11-18T13:41:33;13.90;63.50
17918;DHT22;9084;50.956;3.106;2022-11-18T13:44:23;14.00;68.40
17918;DHT22;9084;50.956;3.106;2022-11-18T13:46:54;14.10;68.00
17918;DHT22;9084;50.956;3.106;2022-11-18T13:49:36;14.10;55.30
17918;DHT22;9084;50.956;3.106;2022-11-18T13:52:12;14.20;52.60
17918;DHT22;9084;50.956;3.106;2022-11-18T13:54:40;14.30;47.10
17918;DHT22;9084;50.956;3.106;2022-11-18T13:57:06;14.20;40.30
17918;DHT22;9084;50.956;3.106;2022-11-18T13:59:41;14.20;42.30
17918;DHT22;9084;50.956;3.106;2022-11-18T14:02:12;14.20;40.30
17918;DHT22;9084;50.956;3.106;2022-11-18T14:04:51;14.20;33.60
17918;DHT22;9084;50.956;3.106;2022-11-18T14:10:13;14.10;31.80
17918;DHT22;9084;50.956;3.106;2022-11-18T14:12:39;14.10;38.30
17918;DHT22;9084;50.956;3.106;2022-11-18T14:17:55;14.00;44.60
17918;DHT22;9084;50.956;3.106;2022-11-18T14:20:23;13.90;50.50
17918;DHT22;9084;50.956;3.106;2022-11-18T14:22:56;13.80;50.40
17918;DHT22;9084;50.956;3.106;2022-11-18T14:25:28;13.80;52.70
17918;DHT22;9084;50.956;3.106;2022-11-18T14:28:32;13.70;56.80
17918;DHT22;9084;50.956;3.106;2022-11-18T14:31:22;13.60;64.00
17918;DHT22;9084;50.956;3.106;2022-11-18T14:36:41;13.50;67.70
17918;DHT22;9084;50.956;3.106;2022-11-18T14:39:24;13.40;70.20
17918;DHT22;9084;50.956;3.106;2022-11-18T14:41:54;13.40;68.80
17918;DHT22;9084;50.956;3.106;2022-11-18T14:44:22;13.30;73.60
17918;DHT22;9084;50.956;3.106;2022-11-18T14:47:02;13.20;70.80
17918;DHT22;9084;50.956;3.106;2022-11-18T14:49:29;13.20;71.00
17918;DHT22;9084;50.956;3.106;2022-11-18T14:51:57;13.20;76.60
17918;DHT22;9084;50.956;3.106;2022-11-18T14:54:26;13.10;78.60
17918;DHT22;9084;50.956;3.106;2022-11-18T14:56:59;13.00;84.30
17918;DHT22;9084;50.956;3.106;2022-11-18T14:59:28;13.20;94.10
17918;DHT22;9084;50.956;3.106;2022-11-18T15:01:54;12.80;96.30
17918;DHT22;9084;50.956;3.106;2022-11-18T15:04:26;12.70;99.90
17918;DHT22;9084;50.956;3.106;2022-11-18T15:06:56;12.70;99.90
17918;DHT22;9084;50.956;3.106;2022-11-18T15:09:23;12.70;99.90
17918;DHT22;9084;50.956;3.106;2022-11-18T15:11:49;12.60;99.90
17918;DHT22;9084;50.956;3.106;2022-11-18T15:14:17;12.50;99.90
17918;DHT22;9084;50.956;3.106;2022-11-18T15:16:43;12.40;99.90
17918;DHT22;9084;50.956;3.106;2022-11-18T15:19:13;12.40;99.90
17918;DHT22;9084;50.956;3.106;2022-11-18T15:21:42;12.30;99.90
17918;DHT22;9084;50.956;3.106;2022-11-18T15:24:07;12.30;99.90
17918;DHT22;9084;50.956;3.106;2022-11-18T15:26:36;12.20;99.90
17918;DHT22;9084;50.956;3.106;2022-11-18T15:29:05;12.10;99.90
17918;DHT22;9084;50.956;3.106;2022-11-18T15:31:31;12.10;99.90
17918;DHT22;9084;50.956;3.106;2022-11-18T15:33:57;12.00;99.90
17918;DHT22;9084;50.956;3.106;2022-11-18T15:36:25;11.90;99.90
17918;DHT22;9084;50.956;3.106;2022-11-18T15:38:52;11.90;99.90
17918;DHT22;9084;50.956;3.106;2022-11-18T15:43:47;11.80;99.90
17918;DHT22;9084;50.956;3.106;2022-11-18T15:46:15;11.80;99.90
17918;DHT22;9084;50.956;3.106;2022-11-18T15:48:44;11.70;99.90
17918;DHT22;9084;50.956;3.106;2022-11-18T15:51:10;11.70;99.90
17918;DHT22;9084;50.956;3.106;2022-11-18T15:53:39;11.70;99.90
17918;DHT22;9084;50.956;3.106;2022-11-18T15:59:02;11.70;99.90
17918;DHT22;9084;50.956;3.106;2022-11-18T16:01:33;11.60;99.90
17918;DHT22;9084;50.956;3.106;2022-11-18T16:04:03;11.60;99.90
17918;DHT22;9084;50.956;3.106;2022-11-18T16:06:30;11.50;99.90
17918;DHT22;9084;50.956;3.106;2022-11-18T16:08:58;11.50;99.90
17918;DHT22;9084;50.956;3.106;2022-11-18T16:11:24;11.50;99.90
17918;DHT22;9084;50.956;3.106;2022-11-18T16:14:11;11.40;99.90
17918;DHT22;9084;50.956;3.106;2022-11-18T16:16:39;11.40;99.90
17918;DHT22;9084;50.956;3.106;2022-11-18T16:19:07;11.40;99.90
17918;DHT22;9084;50.956;3.106;2022-11-18T16:21:38;11.40;99.90
17918;DHT22;9084;50.956;3.106;2022-11-18T16:24:06;11.40;99.90
17918;DHT22;9084;50.956;3.106;2022-11-18T16:26:33;11.40;99.90
17918;DHT22;9084;50.956;3.106;2022-11-18T16:28:59;11.30;99.90
17918;DHT22;9084;50.956;3.106;2022-11-18T16:31:26;11.30;99.90
17918;DHT22;9084;50.956;3.106;2022-11-18T16:34:23;11.30;99.90
17918;DHT22;9084;50.956;3.106;2022-11-18T16:36:54;11.30;99.90
17918;DHT22;9084;50.956;3.106;2022-11-18T16:39:22;11.30;99.90
17918;DHT22;9084;50.956;3.106;2022-11-18T16:41:53;11.30;99.90
17918;DHT22;9084;50.956;3.106;2022-11-18T16:44:22;11.20;99.90
17918;DHT22;9084;50.956;3.106;2022-11-18T16:46:52;11.30;99.90
17918;DHT22;9084;50.956;3.106;2022-11-18T16:49:23;11.30;99.90
17918;DHT22;9084;50.956;3.106;2022-11-18T16:51:51;11.20;99.90
17918;DHT22;9084;50.956;3.106;2022-11-18T16:54:27;11.20;99.90
17918;DHT22;9084;50.956;3.106;2022-11-18T16:56:55;11.30;99.90
17918;DHT22;9084;50.956;3.106;2022-11-18T16:59:22;11.20;99.90
17918;DHT22;9084;50.956;3.106;2022-11-18T17:01:49;11.20;99.90
17918;DHT22;9084;50.956;3.106;2022-11-18T17:04:16;11.20;99.90
17918;DHT22;9084;50.956;3.106;2022-11-18T17:06:43;11.20;99.90
17918;DHT22;9084;50.956;3.106;2022-11-18T17:09:21;11.20;99.90
17918;DHT22;9084;50.956;3.106;2022-11-18T17:11:47;11.20;99.90
17918;DHT22;9084;50.956;3.106;2022-11-18T17:14:13;11.10;99.90
17918;DHT22;9084;50.956;3.106;2022-11-18T17:16:39;11.10;99.90
17918;DHT22;9084;50.956;3.106;2022-11-18T17:19:06;11.20;99.90
17918;DHT22;9084;50.956;3.106;2022-11-18T17:21:34;11.20;99.90
17918;DHT22;9084;50.956;3.106;2022-11-18T17:24:00;11.20;99.90
17918;DHT22;9084;50.956;3.106;2022-11-18T17:26:28;11.10;99.90
17918;DHT22;9084;50.956;3.106;2022-11-18T17:28:57;11.10;99.90
17918;DHT22;9084;50.956;3.106;2022-11-18T17:31:26;11.00;99.90
17918;DHT22;9084;50.956;3.106;2022-11-18T17:33:53;11.00;99.90
17918;DHT22;9084;50.956;3.106;2022-11-18T17:36:24;10.90;99.90
17918;DHT22;9084;50.956;3.106;2022-11-18T17:38:52;10.90;99.90
17918;DHT22;9084;50.956;3.106;2022-11-18T17:41:20;10.90;99.90
17918;DHT22;9084;50.956;3.106;2022-11-18T17:44:06;10.90;99.90
17918;DHT22;9084;50.956;3.106;2022-11-18T17:46:35;10.90;99.90
17918;DHT22;9084;50.956;3.106;2022-11-18T17:49:03;10.90;99.90
17918;DHT22;9084;50.956;3.106;2022-11-18T17:51:29;10.80;99.90
17918;DHT22;9084;50.956;3.106;2022-11-18T17:53:58;10.80;99.90
17918;DHT22;9084;50.956;3.106;2022-11-18T17:56:24;10.70;99.90
17918;DHT22;9084;50.956;3.106;2022-11-18T17:58:50;10.60;99.90
17918;DHT22;9084;50.956;3.106;2022-11-18T18:01:18;10.60;99.90
17918;DHT22;9084;50.956;3.106;2022-11-18T18:03:48;10.50;99.90
17918;DHT22;9084;50.956;3.106;2022-11-18T18:06:14;10.50;99.90
17918;DHT22;9084;50.956;3.106;2022-11-18T18:08:40;10.50;99.90